Data for 05/28/2010

Time Sea-Level Adjusted Pressure Absolute Pressure Temperature Relative Humidity Dew Point   
(mb) (inHg) (mb) (inHg) (C) (F) (%) (C) (F)
00:05 1014 29.94 843 24.89 9.9 49.8 81 6.8 44.2
00:10 1014 29.94 843 24.89 9.9 49.8 81 6.8 44.3
00:15 1014 29.94 843 24.89 9.7 49.5 83 7 44.5
00:20 1014 29.94 843 24.89 9.6 49.4 84 7 44.6
00:25 1014 29.94 843 24.89 9.7 49.4 84 7 44.6
00:30 1014 29.94 843 24.89 9.7 49.4 85 7.3 45.1
00:35 1014 29.94 843 24.89 9.6 49.2 86 7.3 45.1
00:40 1014 29.94 843 24.89 9.5 49 85 7.1 44.8
00:45 1014 29.94 843 24.89 9.5 49.1 84 7 44.6
00:50 1014 29.94 843 24.89 9.6 49.3 83 6.9 44.5
00:55 1014 29.94 843 24.89 9.7 49.5 83 6.9 44.4
01:00 1014 29.94 844 24.92 10 49.9 84 7.4 45.3
01:05 1014 29.94 844 24.92 10.1 50.2 85 7.7 45.9
01:10 1015 29.97 844 24.92 10 50 86 7.9 46.2
01:15 1014 29.94 844 24.92 9.9 49.8 87 7.8 46.1
01:20 1015 29.97 844 24.92 9.8 49.7 87 7.8 46
01:25 1014 29.94 844 24.92 9.7 49.4 86 7.4 45.4
01:30 1015 29.97 844 24.92 9.5 49.1 87 7.4 45.4
01:35 1015 29.97 844 24.92 9.4 48.9 86 7.3 45.1
01:40 1015 29.97 844 24.92 9.4 48.9 85 7 44.5
01:45 1015 29.97 844 24.92 9.4 48.9 85 7 44.6
01:50 1015 29.97 844 24.92 9.3 48.7 85 6.8 44.3
01:55 1015 29.97 844 24.92 9.2 48.5 85 6.8 44.3
02:00 1015 29.97 844 24.92 9.1 48.4 86 6.8 44.3
02:05 1015 29.97 844 24.92 9.1 48.4 87 7 44.6
02:10 1015 29.97 844 24.92 9 48.2 87 7 44.6
02:15 1015 29.97 844 24.92 8.9 48.1 87 6.9 44.4
02:20 1014 29.94 844 24.92 8.8 47.9 88 6.9 44.5
02:25 1014 29.94 844 24.92 8.7 47.7 88 6.9 44.3
02:30 1014 29.94 844 24.92 8.7 47.6 88 6.8 44.3
02:35 1014 29.94 844 24.92 8.6 47.5 87 6.7 44
02:40 1015 29.97 844 24.92 8.6 47.6 87 6.6 43.9
02:45 1015 29.97 844 24.92 8.6 47.5 88 6.7 44
02:50 1015 29.97 844 24.92 8.4 47.1 90 6.8 44.3
02:55 1015 29.97 844 24.92 8.4 47.1 90 6.8 44.2
03:00 1015 29.97 844 24.92 8.2 46.7 91 6.7 44.1
03:05 1015 29.97 844 24.92 8.1 46.5 91 6.6 43.9
03:10 1014 29.94 844 24.92 8.1 46.6 90 6.5 43.7
03:15 1014 29.94 844 24.92 8 46.4 90 6.4 43.6
03:20 1014 29.94 844 24.92 7.9 46.3 91 6.5 43.7
03:25 1015 29.97 844 24.92 7.8 46 90 6.3 43.3
03:30 1015 29.97 844 24.92 7.8 46 91 6.3 43.3
03:35 1015 29.97 844 24.92 7.7 45.9 91 6.3 43.3
03:40 1015 29.97 844 24.92 7.8 46 90 6.2 43.2
03:45 1015 29.97 844 24.92 7.8 46.1 90 6.3 43.4
03:50 1015 29.97 844 24.92 7.9 46.2 90 6.3 43.3
03:55 1015 29.97 844 24.92 8.1 46.5 89 6.4 43.6
04:00 1015 29.97 844 24.92 8.2 46.8 89 6.5 43.6
04:05 1015 29.97 844 24.92 8.3 46.9 89 6.6 43.9
04:10 1015 29.97 844 24.92 8.2 46.7 89 6.5 43.7
04:15 1015 29.97 844 24.92 8.1 46.6 90 6.5 43.8
04:20 1015 29.97 844 24.92 8 46.4 88 6.1 43
04:25 1015 29.97 844 24.92 7.9 46.2 87 5.9 42.6
04:30 1015 29.97 844 24.92 7.8 46 87 5.8 42.4
04:35 1015 29.97 844 24.92 7.6 45.7 89 5.9 42.5
04:40 1015 29.97 844 24.92 7.5 45.4 87 5.4 41.8
04:45 1015 29.97 844 24.92 7.1 44.7 88 5.2 41.4
04:50 1015 29.97 844 24.92 6.9 44.4 88 5.1 41.2
04:55 1015 29.97 844 24.92 6.8 44.3 89 5.1 41.1
05:00 1015 29.97 844 24.92 6.6 43.9 89 4.9 40.9
05:05 1015 29.97 844 24.92 6.4 43.5 89 4.8 40.6
05:10 1015 29.97 844 24.92 6.2 43.2 90 4.7 40.4
05:15 1015 29.97 844 24.92 6.1 43 90 4.6 40.3
05:20 1015 29.97 844 24.92 6.1 43 90 4.6 40.3
05:25 1015 29.97 844 24.92 6.1 42.9 90 4.6 40.2
05:30 1015 29.97 844 24.92 6 42.8 90 4.4 40
05:35 1015 29.97 844 24.92 5.9 42.7 90 4.4 39.9
05:40 1015 29.97 844 24.92 5.8 42.5 90 4.4 39.8
05:45 1015 29.97 844 24.92 5.8 42.4 91 4.4 39.9
05:50 1015 29.97 844 24.92 5.9 42.6 90 4.4 39.9
05:55 1015 29.97 845 24.95 5.8 42.4 91 4.4 39.9
06:00 1015 29.97 844 24.92 5.8 42.4 91 4.4 39.9
06:05 1015 29.97 844 24.92 5.8 42.4 91 4.5 40
06:10 1015 29.97 844 24.92 5.8 42.4 91 4.4 39.9
06:15 1015 29.97 844 24.92 5.8 42.4 91 4.4 39.9
06:20 1015 29.97 844 24.92 5.8 42.5 91 4.4 39.9
06:25 1015 29.97 844 24.92 5.8 42.4 90 4.3 39.8
06:30 1015 29.97 844 24.92 5.7 42.2 91 4.3 39.8
06:35 1015 29.97 844 24.92 5.6 42.1 91 4.3 39.8
06:40 1015 29.97 844 24.92 5.8 42.4 91 4.5 40
06:45 1015 29.97 844 24.92 5.9 42.6 90 4.4 39.9
06:50 1015 29.97 844 24.92 5.6 42 92 4.4 40
06:55 1015 29.97 844 24.92 5.4 41.7 94 4.5 40.2
07:00 1015 29.97 844 24.92 5.6 42 94 4.7 40.4
07:05 1015 29.97 844 24.92 5.7 42.2 93 4.6 40.3
07:10 1015 29.97 844 24.92 5.7 42.2 93 4.6 40.2
07:15 1015 29.97 844 24.92 5.8 42.4 92 4.7 40.4
07:20 1015 29.97 844 24.92 5.9 42.6 93 4.8 40.6
07:25 1015 29.97 844 24.92 5.9 42.6 92 4.7 40.5
07:30 1015 29.97 844 24.92 5.8 42.4 92 4.5 40.2
07:35 1015 29.97 844 24.92 5.7 42.2 92 4.4 40
07:40 1015 29.97 844 24.92 5.4 41.8 93 4.4 39.9
07:45 1015 29.97 844 24.92 5.4 41.7 93 4.4 40
07:50 1015 29.97 844 24.92 5.3 41.6 94 4.5 40
07:55 1014 29.94 843 24.89 5.2 41.4 95 4.5 40
08:00 1014 29.94 844 24.92 5.5 41.8 95 4.7 40.5
08:05 1015 29.97 844 24.92 5.6 42 94 4.7 40.5
08:10 1014 29.94 844 24.92 5.5 41.9 93 4.5 40
08:15 1015 29.97 844 24.92 5.6 42 93 4.5 40.1
08:20 1015 29.97 844 24.92 5.7 42.3 92 4.5 40.1
08:25 1014 29.94 844 24.92 5.9 42.5 91 4.5 40.1
08:30 1014 29.94 843 24.89 6 42.8 92 4.8 40.6
08:35 1014 29.94 843 24.89 6.1 43 92 4.8 40.7
08:40 1014 29.94 843 24.89 6 42.8 91 4.7 40.4
08:45 1014 29.94 843 24.89 5.9 42.6 92 4.6 40.3
08:50 1014 29.94 843 24.89 5.8 42.5 92 4.6 40.2
08:55 1014 29.94 843 24.89 5.8 42.4 92 4.6 40.3
09:00 1014 29.94 843 24.89 5.9 42.6 91 4.6 40.2
09:05 1014 29.94 843 24.89 5.9 42.6 91 4.5 40.2
09:10 1014 29.94 843 24.89 5.9 42.7 91 4.7 40.4
09:15 1014 29.94 843 24.89 6 42.8 91 4.7 40.4
09:20 1014 29.94 843 24.89 5.9 42.6 93 4.8 40.6
09:25 1014 29.94 843 24.89 5.9 42.7 93 4.9 40.7
09:30 1014 29.94 843 24.89 6 42.8 93 4.9 40.8
09:35 1014 29.94 844 24.92 5.9 42.6 91 4.6 40.3
09:40 1014 29.94 843 24.89 6.1 43 91 4.7 40.5
09:45 1014 29.94 843 24.89 6.3 43.4 91 4.9 40.9
09:50 1014 29.94 843 24.89 6.4 43.5 91 5 41
09:55 1014 29.94 843 24.89 6.4 43.6 91 5 41.1
10:00 1014 29.94 843 24.89 6.3 43.3 92 5.1 41.2
10:05 1014 29.94 843 24.89 6.3 43.4 92 5.1 41.2
10:10 1014 29.94 843 24.89 6.5 43.7 91 5.2 41.4
10:15 1014 29.94 843 24.89 6.5 43.8 90 5 41
10:20 1014 29.94 843 24.89 6.3 43.4 91 4.9 40.8
10:25 1014 29.94 843 24.89 6.3 43.3 91 4.9 40.8
10:30 1014 29.94 843 24.89 6.4 43.6 91 5.1 41.2
10:35 1014 29.94 843 24.89 6.6 43.9 91 5.3 41.5
10:40 1014 29.94 843 24.89 6.6 43.9 90 5 41
10:45 1014 29.94 843 24.89 6.4 43.5 92 5.1 41.2
10:50 1014 29.94 843 24.89 6.5 43.7 91 5.2 41.3
10:55 1013 29.91 842 24.86 6.7 44.1 91 5.3 41.6
11:00 1013 29.91 842 24.86 6.9 44.4 91 5.5 41.8
11:05 1013 29.91 842 24.86 7.1 44.7 91 5.7 42.3
11:10 1013 29.91 842 24.86 7 44.7 90 5.5 41.9
11:15 1013 29.91 842 24.86 6.9 44.4 91 5.5 41.9
11:20 1013 29.91 842 24.86 7 44.6 91 5.6 42.1
11:25 1013 29.91 842 24.86 7.2 44.9 91 5.8 42.4
11:30 1013 29.91 842 24.86 7.1 44.7 89 5.4 41.8
11:35 1013 29.91 842 24.86 6.8 44.2 92 5.5 41.9
11:40 1013 29.91 842 24.86 7.1 44.8 90 5.5 42
11:45 1013 29.91 842 24.86 7.1 44.8 91 5.7 42.2
11:50 1013 29.91 842 24.86 7.2 44.9 91 5.8 42.5
11:55 1013 29.91 842 24.86 7.1 44.8 91 5.8 42.5
12:00 1013 29.91 842 24.86 7.2 44.9 92 6 42.7
12:05 1013 29.91 842 24.86 7.4 45.4 91 6.1 42.9
12:10 1013 29.91 842 24.86 7.5 45.4 90 6 42.8
12:15 1013 29.91 842 24.86 7.3 45.2 91 5.9 42.6
12:20 1013 29.91 842 24.86 7.4 45.3 91 5.9 42.7
12:25 1013 29.91 842 24.86 7.5 45.5 91 6.2 43.1
12:30 1012 29.88 842 24.86 7.5 45.4 91 6.1 42.9
12:35 1013 29.91 842 24.86 7.3 45.2 91 5.9 42.6
12:40 1013 29.91 842 24.86 7.1 44.7 91 5.7 42.3
12:45 1013 29.91 842 24.86 7 44.7 92 5.9 42.6
12:50 1013 29.91 842 24.86 7.6 45.7 92 6.4 43.5
12:55 1012 29.88 842 24.86 7.8 46 90 6.2 43.2
13:00 1012 29.88 841 24.83 7.5 45.5 90 6 42.9
13:05 1012 29.88 842 24.86 7.6 45.6 91 6.1 43
13:10 1012 29.88 841 24.83 7.6 45.7 90 6 42.8
13:15 1012 29.88 841 24.83 7.6 45.6 89 6 42.7
13:20 1012 29.88 842 24.86 7.6 45.6 90 6.1 42.9
13:25 1012 29.88 842 24.86 7.4 45.4 90 5.9 42.7
13:30 1012 29.88 842 24.86 7.3 45.2 91 5.9 42.6
13:35 1012 29.88 842 24.86 7.3 45.2 90 5.9 42.5
13:40 1013 29.91 842 24.86 7.2 45 91 5.9 42.6
13:45 1013 29.91 842 24.86 7.1 44.9 91 5.7 42.3
13:50 1013 29.91 842 24.86 7 44.7 92 5.8 42.4
13:55 1013 29.91 842 24.86 7.1 44.7 93 6 42.7
14:00 1013 29.91 842 24.86 7.3 45.2 93 6.2 43.2
14:05 1013 29.91 842 24.86 7.4 45.3 92 6.3 43.3
14:10 1013 29.91 842 24.86 7.5 45.4 92 6.2 43.2
14:15 1012 29.88 842 24.86 7.5 45.4 91 6.2 43.1
14:20 1012 29.88 842 24.86 7.5 45.5 91 6.2 43.1
14:25 1013 29.91 842 24.86 7.4 45.3 92 6.1 43
14:30 1013 29.91 842 24.86 7.6 45.6 92 6.3 43.3
14:35 1013 29.91 842 24.86 7.6 45.7 91 6.3 43.3
14:40 1013 29.91 842 24.86 7.6 45.6 91 6.2 43.1
14:45 1013 29.91 842 24.86 7.4 45.4 91 6 42.8
14:50 1014 29.94 843 24.89 7.1 44.8 91 5.7 42.3
14:55 1014 29.94 843 24.89 6.8 44.3 92 5.6 42.1
15:00 1014 29.94 843 24.89 6.8 44.3 92 5.7 42.2
15:05 1014 29.94 843 24.89 6.8 44.3 92 5.7 42.2
15:10 1014 29.94 843 24.89 7 44.7 92 5.9 42.5
15:15 1014 29.94 843 24.89 7.2 44.9 92 6 42.9
15:20 1014 29.94 843 24.89 7.1 44.8 92 5.8 42.5
15:25 1014 29.94 843 24.89 6.8 44.2 92 5.5 41.9
15:30 1014 29.94 843 24.89 6.6 43.9 92 5.5 41.8
15:35 1014 29.94 843 24.89 6.7 44.1 93 5.7 42.2
15:40 1014 29.94 843 24.89 6.8 44.3 93 5.7 42.3
15:45 1014 29.94 843 24.89 6.8 44.2 92 5.7 42.2
15:50 1014 29.94 843 24.89 6.7 44 93 5.6 42.1
15:55 1014 29.94 843 24.89 6.6 43.9 93 5.6 42
16:00 1014 29.94 843 24.89 6.5 43.8 93 5.5 41.8
16:05 1014 29.94 843 24.89 6.5 43.8 94 5.6 42
16:10 1014 29.94 843 24.89 6.6 43.8 93 5.6 42
16:15 1014 29.94 843 24.89 6.5 43.7 92 5.4 41.7
16:20 1014 29.94 843 24.89 6.4 43.6 93 5.4 41.8
16:25 1014 29.94 843 24.89 6.4 43.5 93 5.3 41.5
16:30 1015 29.97 844 24.92 6.1 43.1 93 5.2 41.3
16:35 1014 29.94 844 24.92 6.1 43.1 94 5.2 41.3
16:40 1014 29.94 843 24.89 6.2 43.1 94 5.2 41.4
16:45 1014 29.94 843 24.89 6.3 43.3 94 5.5 41.8
16:50 1014 29.94 843 24.89 6.7 44.1 94 5.9 42.6
16:55 1014 29.94 843 24.89 6.9 44.5 94 6 42.8
17:00 1014 29.94 843 24.89 6.8 44.2 93 5.6 42.2
17:05 1014 29.94 843 24.89 6.5 43.7 93 5.5 41.9
17:10 1014 29.94 843 24.89 6.4 43.5 94 5.5 41.8
17:15 1014 29.94 843 24.89 6.3 43.3 94 5.4 41.6
17:20 1014 29.94 843 24.89 6.2 43.1 94 5.2 41.4
17:25 1014 29.94 843 24.89 6.1 43 93 5.1 41.2
17:30 1014 29.94 843 24.89 6.1 43 93 5.1 41.2
17:35 1014 29.94 843 24.89 6.1 43 94 5.2 41.4
17:40 1014 29.94 843 24.89 6.2 43.2 94 5.4 41.7
17:45 1014 29.94 843 24.89 6.3 43.3 94 5.4 41.8
17:50 1014 29.94 843 24.89 6.2 43.2 95 5.4 41.7
17:55 1013 29.91 843 24.89 6.2 43.2 94 5.3 41.6
18:00 1013 29.91 842 24.86 6.3 43.4 94 5.4 41.7
18:05 1013 29.91 842 24.86 6.4 43.5 94 5.5 41.9
18:10 1013 29.91 842 24.86 6.5 43.7 94 5.5 42
18:15 1013 29.91 843 24.89 6.6 43.8 94 5.6 42.1
18:20 1013 29.91 843 24.89 6.7 44 93 5.6 42.2
18:25 1013 29.91 843 24.89 6.8 44.2 93 5.8 42.4
18:30 1013 29.91 842 24.86 7 44.5 92 5.8 42.4
18:35 1013 29.91 843 24.89 7.2 44.9 91 5.8 42.5
18:40 1013 29.91 842 24.86 7.4 45.2 91 5.9 42.7
18:45 1013 29.91 842 24.86 7.4 45.3 91 6 42.8
18:50 1013 29.91 842 24.86 7.4 45.3 92 6.1 43
18:55 1013 29.91 842 24.86 7.5 45.6 90 6 42.8
19:00 1013 29.91 842 24.86 7.9 46.1 89 6.2 43.2
19:05 1013 29.91 842 24.86 7.9 46.1 89 6.2 43.2
19:10 1013 29.91 842 24.86 7.9 46.1 89 6.2 43.2
19:15 1013 29.91 842 24.86 7.9 46.2 89 6.2 43.2
19:20 1013 29.91 842 24.86 8 46.4 86 5.9 42.5
19:25 1013 29.91 842 24.86 8.2 46.8 88 6.4 43.4
19:30 1013 29.91 842 24.86 7.8 46.1 90 6.3 43.4
19:35 1014 29.94 843 24.89 7.7 45.8 91 6.3 43.3
19:40 1014 29.94 843 24.89 7.7 45.9 89 6.1 42.9
19:45 1013 29.91 843 24.89 7.2 45 92 6.1 43
19:50 1013 29.91 842 24.86 6.7 44.1 92 5.6 42.1
19:55 1013 29.91 842 24.86 6.1 42.9 93 5.1 41.2
20:00 1013 29.91 843 24.89 5.6 42 95 4.7 40.5
20:05 1014 29.94 843 24.89 5.5 41.8 95 4.7 40.5
20:10 1014 29.94 843 24.89 5.4 41.7 95 4.7 40.4
20:15 1014 29.94 844 24.92 5.4 41.8 95 4.7 40.5
20:20 1014 29.94 844 24.92 5.5 41.8 95 4.7 40.4
20:25 1014 29.94 843 24.89 5.4 41.8 95 4.6 40.4
20:30 1014 29.94 843 24.89 5.4 41.7 94 4.6 40.3
20:35 1014 29.94 843 24.89 5.4 41.7 94 4.6 40.2
20:40 1014 29.94 843 24.89 5.4 41.7 94 4.5 40
20:45 1014 29.94 843 24.89 5.3 41.5 94 4.4 39.9
20:50 1014 29.94 843 24.89 5.2 41.4 94 4.4 39.9
20:55 1014 29.94 844 24.92 5.2 41.4 94 4.3 39.7
21:00 1015 29.97 844 24.92 5 41 94 4.2 39.5
21:05 1015 29.97 844 24.92 4.9 40.8 94 4 39.3
21:10 1015 29.97 844 24.92 4.8 40.7 95 4.1 39.3
21:15 1015 29.97 844 24.92 4.7 40.5 95 4 39.1
21:20 1015 29.97 844 24.92 4.7 40.4 95 3.9 39
21:25 1015 29.97 844 24.92 4.6 40.4 95 3.9 39
21:30 1015 29.97 844 24.92 4.7 40.5 95 3.9 39.1
21:35 1015 29.97 844 24.92 4.5 40.1 94 3.7 38.7
21:40 1015 29.97 844 24.92 4.5 40.1 94 3.7 38.6
21:45 1015 29.97 844 24.92 4.5 40.2 94 3.7 38.7
21:50 1015 29.97 845 24.95 4.6 40.2 94 3.7 38.7
21:55 1016 30 845 24.95 4.5 40.1 95 3.7 38.7
22:00 1016 30 845 24.95 4.5 40.1 95 3.8 38.8
22:05 1015 29.97 844 24.92 4.5 40.1 95 3.8 38.8
22:10 1015 29.97 844 24.92 4.4 39.9 95 3.6 38.6
22:15 1015 29.97 845 24.95 4.3 39.8 95 3.6 38.4
22:20 1016 30 845 24.95 4.3 39.8 95 3.6 38.4
22:25 1015 29.97 844 24.92 4.5 40 95 3.7 38.7
22:30 1015 29.97 844 24.92 4.5 40 94 3.6 38.5
22:35 1015 29.97 845 24.95 4.2 39.6 95 3.4 38.2
22:40 1015 29.97 845 24.95 4.3 39.7 95 3.5 38.3
22:45 1015 29.97 845 24.95 4.2 39.6 95 3.6 38.4
22:50 1015 29.97 845 24.95 4.2 39.5 96 3.5 38.4
22:55 1015 29.97 845 24.95 4.3 39.7 96 3.6 38.5
23:00 1015 29.97 845 24.95 4.3 39.8 95 3.6 38.5
23:05 1015 29.97 845 24.95 4.3 39.7 95 3.5 38.4
23:10 1015 29.97 845 24.95 4.3 39.7 95 3.5 38.3
23:15 1015 29.97 845 24.95 4.5 40.1 94 3.6 38.6
23:20 1015 29.97 844 24.92 4.5 40.1 93 3.5 38.3
23:25 1015 29.97 844 24.92 4.4 40 92 3.3 37.9
23:30 1015 29.97 845 24.95 4.4 39.8 92 3.1 37.6
23:35 1015 29.97 845 24.95 4.3 39.8 92 3.1 37.6
23:40 1015 29.97 844 24.92 4.3 39.7 92 3.1 37.6
23:45 1015 29.97 844 24.92 4.2 39.6 92 3.1 37.6
23:50 1015 29.97 844 24.92 4.2 39.6 93 3.2 37.7
23:55 1015 29.97 844 24.92 4.2 39.5 93 3.2 37.8
24:00 1015 29.97 845 24.95 4.1 39.4 93 3.1 37.6